createdAt,value
2023-03-15T00:01:11.520Z,97072.41
2023-03-15T00:03:40.167Z,97077.78
2023-03-15T00:06:09.311Z,97081.47
2023-03-15T00:08:39.510Z,97076.97
2023-03-15T00:11:08.191Z,97100.28
2023-03-15T00:13:36.753Z,97107.50
2023-03-15T00:16:06.231Z,97113.72
2023-03-15T00:18:34.847Z,97149.47
2023-03-15T00:21:03.343Z,97156.69
2023-03-15T00:23:32.140Z,97155.03
2023-03-15T00:26:02.122Z,97180.25
2023-03-15T00:28:30.641Z,97174.88
2023-03-15T00:31:06.648Z,97188.31
2023-03-15T00:33:36.800Z,97198.00
2023-03-15T00:36:06.656Z,97210.38
2023-03-15T00:38:35.430Z,97215.75
2023-03-15T00:41:08.190Z,97225.69
2023-03-15T00:43:36.848Z,97213.06
2023-03-15T00:46:06.069Z,97235.59
2023-03-15T00:48:35.452Z,97240.97
2023-03-15T00:51:08.408Z,97249.03
2023-03-15T00:53:37.261Z,97260.59
2023-03-15T00:56:10.182Z,97267.84
2023-03-15T00:58:38.759Z,97274.25
2023-03-15T01:01:08.700Z,97274.25
2023-03-15T01:03:37.268Z,97283.94
2023-03-15T01:06:10.464Z,97292.19
2023-03-15T01:08:39.023Z,97301.09
2023-03-15T01:11:11.041Z,97309.34
2023-03-15T01:13:39.804Z,97319.03
2023-03-15T01:16:09.977Z,97336.00
2023-03-15T01:18:38.908Z,97335.16
2023-03-15T01:21:08.557Z,97334.34
2023-03-15T01:23:37.161Z,97327.97
2023-03-15T01:26:07.013Z,97336.00
2023-03-15T01:28:36.984Z,97344.06
2023-03-15T01:31:06.018Z,97345.91
2023-03-15T01:33:34.751Z,97370.06
2023-03-15T01:36:04.688Z,97356.66
2023-03-15T01:38:33.463Z,97357.28
2023-03-15T01:41:02.227Z,97355.63
2023-03-15T01:43:31.980Z,97364.72
2023-03-15T01:46:29.119Z,97345.09
2023-03-15T01:49:02.763Z,97348.00
2023-03-15T01:51:36.065Z,97360.38
2023-03-15T01:54:08.349Z,97367.59
2023-03-15T01:56:38.134Z,97381.03
2023-03-15T01:59:07.066Z,97388.28
2023-03-15T02:01:37.120Z,97381.84
2023-03-15T02:04:08.889Z,97378.34
2023-03-15T02:06:37.424Z,97378.34
2023-03-15T02:09:09.633Z,97379.34
2023-03-15T02:11:38.235Z,97381.03
2023-03-15T02:14:06.985Z,97374.00
2023-03-15T02:16:36.963Z,97385.59
2023-03-15T02:19:06.403Z,97390.97
2023-03-15T02:21:44.123Z,97385.59
2023-03-15T02:24:30.458Z,97394.66
2023-03-15T02:26:59.147Z,97403.34
2023-03-15T02:29:29.476Z,97413.25
2023-03-15T02:31:58.364Z,97410.75
2023-03-15T02:34:27.133Z,97410.56
2023-03-15T02:36:55.799Z,97409.75
2023-03-15T02:39:24.748Z,97415.94
2023-03-15T02:41:55.224Z,97411.59
2023-03-15T02:44:26.985Z,97408.91
2023-03-15T02:46:58.545Z,97417.81
2023-03-15T02:49:29.339Z,97421.50
2023-03-15T02:51:57.988Z,97435.75
2023-03-15T02:54:26.675Z,97441.97
2023-03-15T02:56:55.218Z,97443.00
2023-03-15T02:59:23.843Z,97443.81
2023-03-15T03:01:52.347Z,97443.00
2023-03-15T03:04:22.643Z,97444.66
2023-03-15T03:06:51.285Z,97438.44
2023-03-15T03:09:20.087Z,97441.13
2023-03-15T03:11:48.753Z,97432.25
2023-03-15T03:14:17.500Z,97437.63
2023-03-15T03:16:46.029Z,97433.94
2023-03-15T03:19:14.662Z,97438.44
2023-03-15T03:22:07.515Z,97440.31
2023-03-15T03:24:37.559Z,97447.34
2023-03-15T03:27:07.031Z,97461.78
2023-03-15T03:29:35.636Z,97461.78
2023-03-15T03:32:04.198Z,97469.84
2023-03-15T03:34:33.021Z,97476.91
2023-03-15T03:37:01.512Z,97473.34
2023-03-15T03:39:30.209Z,97480.59
2023-03-15T03:42:00.464Z,97490.50
2023-03-15T03:44:29.230Z,97496.69
2023-03-15T03:47:00.461Z,97502.06
2023-03-15T03:49:29.514Z,97497.53
2023-03-15T03:51:58.021Z,97504.75
2023-03-15T03:54:26.646Z,97513.84
2023-03-15T03:56:55.278Z,97515.50
2023-03-15T03:59:25.391Z,97521.91
2023-03-15T04:01:53.871Z,97518.19
2023-03-15T04:04:22.601Z,97534.31
2023-03-15T04:06:51.195Z,97538.03
2023-03-15T04:09:19.789Z,97538.03
2023-03-15T04:11:48.456Z,97547.09
2023-03-15T04:14:17.070Z,97541.72
2023-03-15T04:16:47.045Z,97540.91
2023-03-15T04:19:15.872Z,97545.25
2023-03-15T04:21:47.364Z,97544.41
2023-03-15T04:24:16.241Z,97541.72
2023-03-15T04:26:44.895Z,97539.88
2023-03-15T04:29:15.367Z,97543.41
2023-03-15T04:31:44.279Z,97541.72
2023-03-15T04:34:14.298Z,97552.47
2023-03-15T04:36:42.950Z,97557.00
2023-03-15T04:39:12.686Z,97544.41
2023-03-15T04:41:41.337Z,97550.81
2023-03-15T04:44:09.901Z,97552.47
2023-03-15T04:46:38.608Z,97552.66
2023-03-15T04:49:07.318Z,97558.88
2023-03-15T04:51:37.303Z,97562.38
2023-03-15T04:54:06.036Z,97568.56
2023-03-15T04:56:36.682Z,97566.94
2023-03-15T04:59:05.274Z,97571.47
2023-03-15T05:01:33.880Z,97570.44
2023-03-15T05:04:02.510Z,97569.59
2023-03-15T05:06:31.176Z,97566.94
2023-03-15T05:09:01.046Z,97574.16
2023-03-15T05:11:29.855Z,97578.69
2023-03-15T05:13:58.423Z,97584.06
2023-03-15T05:16:27.078Z,97579.53
2023-03-15T05:18:57.167Z,97579.53
2023-03-15T05:21:25.885Z,97589.44
2023-03-15T05:23:56.278Z,97592.97
2023-03-15T05:26:26.356Z,97594.00
2023-03-15T05:28:54.966Z,97601.84
2023-03-15T05:31:23.555Z,97599.16
2023-03-15T05:33:54.598Z,97609.91
2023-03-15T05:36:23.455Z,97604.53
2023-03-15T05:38:52.124Z,97599.97
2023-03-15T05:41:20.698Z,97607.22
2023-03-15T05:43:50.854Z,97613.63
2023-03-15T05:46:19.707Z,97605.56
2023-03-15T05:48:48.326Z,97612.78
2023-03-15T05:51:16.985Z,97610.09
2023-03-15T05:53:46.439Z,97618.16
2023-03-15T05:56:15.062Z,97612.97
2023-03-15T05:58:43.677Z,97622.69
2023-03-15T06:01:13.759Z,97629.09
2023-03-15T06:03:42.526Z,97634.44
2023-03-15T06:06:11.354Z,97652.03
2023-03-15T06:08:39.984Z,97639.44
2023-03-15T06:11:08.864Z,97656.00
2023-03-15T06:13:37.576Z,97656.19
2023-03-15T06:16:07.067Z,97659.88
2023-03-15T06:18:37.031Z,97673.78
2023-03-15T06:21:06.073Z,97673.56
2023-03-15T06:23:34.721Z,97664.25
2023-03-15T06:26:03.539Z,97680.38
2023-03-15T06:28:32.183Z,97691.75
2023-03-15T06:31:00.832Z,97704.97
2023-03-15T06:33:29.477Z,97708.50
2023-03-15T06:35:59.634Z,97715.16
2023-03-15T06:38:28.258Z,97718.28
2023-03-15T06:40:58.475Z,97723.88
2023-03-15T06:43:27.162Z,97726.56
2023-03-15T06:45:56.895Z,97729.84
2023-03-15T06:48:25.647Z,97734.41
2023-03-15T06:50:54.416Z,97736.91
2023-03-15T06:53:24.327Z,97744.72
2023-03-15T06:55:52.885Z,97752.13
2023-03-15T06:58:22.489Z,97760.56
2023-03-15T07:00:51.438Z,97770.28
2023-03-15T07:03:21.650Z,97770.28
2023-03-15T07:05:52.728Z,97770.28
2023-03-15T07:08:22.953Z,97766.97
2023-03-15T07:10:51.677Z,97770.28
2023-03-15T07:13:20.682Z,97781.22
2023-03-15T07:15:54.231Z,97775.63
2023-03-15T07:18:23.073Z,97780.19
2023-03-15T07:20:58.926Z,97777.50
2023-03-15T07:23:29.263Z,97776.50
2023-03-15T07:25:57.931Z,97775.63
2023-03-15T07:28:26.918Z,97788.44
2023-03-15T07:30:56.928Z,97785.56
2023-03-15T07:33:26.421Z,97789.94
2023-03-15T07:35:55.303Z,97793.06
2023-03-15T07:38:24.543Z,97790.16
2023-03-15T07:40:54.804Z,97795.94
2023-03-15T07:43:23.391Z,97790.75
2023-03-15T07:45:52.101Z,97786.38
2023-03-15T07:48:20.814Z,97795.47
2023-03-15T07:50:49.498Z,97799.81
2023-03-15T07:53:18.504Z,97799.00
2023-03-15T07:55:48.695Z,97812.41
2023-03-15T07:58:20.394Z,97818.81
2023-03-15T08:00:49.374Z,97822.34
2023-03-15T08:03:18.377Z,97825.84
2023-03-15T08:05:55.664Z,97825.03
2023-03-15T08:08:24.298Z,97821.31
2023-03-15T08:10:52.841Z,97825.84
2023-03-15T08:13:21.501Z,97830.41
2023-03-15T08:15:50.106Z,97837.63
2023-03-15T08:18:18.650Z,97842.63
2023-03-15T08:20:47.264Z,97846.34
2023-03-15T08:23:17.470Z,97850.03
2023-03-15T08:25:46.305Z,97854.56
2023-03-15T08:28:15.044Z,97863.47
2023-03-15T08:30:43.729Z,97864.50
2023-03-15T08:33:13.566Z,97864.50
2023-03-15T08:35:43.809Z,97859.28
2023-03-15T08:38:12.611Z,97869.84
2023-03-15T08:40:42.812Z,97869.03
2023-03-15T08:43:11.421Z,97870.84
2023-03-15T08:45:59.670Z,97876.22
2023-03-15T08:48:28.829Z,97881.44
2023-03-15T08:50:58.400Z,97884.13
2023-03-15T08:53:27.213Z,97885.78
2023-03-15T08:55:57.297Z,97892.81
2023-03-15T08:58:26.228Z,97894.69
2023-03-15T09:00:54.843Z,97893.66
2023-03-15T09:03:23.894Z,97897.16
2023-03-15T09:05:56.727Z,97894.69
2023-03-15T09:08:25.406Z,97899.19
2023-03-15T09:10:57.159Z,97899.19
2023-03-15T09:13:26.144Z,97904.56
2023-03-15T09:15:55.107Z,97903.75
2023-03-15T09:18:23.938Z,97903.75
2023-03-15T09:20:52.557Z,97910.97
2023-03-15T09:23:21.451Z,97897.53
2023-03-15T09:25:50.224Z,97905.59
2023-03-15T09:28:20.206Z,97901.88
2023-03-15T09:30:48.934Z,97904.56
2023-03-15T09:33:17.531Z,97910.97
2023-03-15T09:35:46.280Z,97902.91
2023-03-15T09:38:15.017Z,97906.63
2023-03-15T09:40:45.290Z,97903.94
2023-03-15T09:44:06.302Z,97908.28
2023-03-15T09:46:36.638Z,97908.28
2023-03-15T09:49:09.290Z,97899.41
2023-03-15T09:51:41.132Z,97902.09
2023-03-15T09:54:12.899Z,97906.63
2023-03-15T09:56:45.737Z,97901.44
2023-03-15T09:59:17.815Z,97902.25
2023-03-15T10:01:49.170Z,97906.63
2023-03-15T10:04:29.923Z,97909.31
2023-03-15T10:06:59.919Z,97914.88
2023-03-15T10:09:33.155Z,97916.53
2023-03-15T10:12:05.517Z,97922.75
2023-03-15T10:14:55.215Z,97917.38
2023-03-15T10:17:33.914Z,97915.69
2023-03-15T10:20:09.720Z,97921.91
2023-03-15T10:22:42.175Z,97929.13
2023-03-15T10:25:16.011Z,97930.16
2023-03-15T10:27:47.673Z,97938.00
2023-03-15T10:30:20.313Z,97936.34
2023-03-15T10:32:53.429Z,97935.16
2023-03-15T10:35:22.817Z,97926.06
2023-03-15T10:37:51.479Z,97936.81
2023-03-15T10:40:42.176Z,97934.31
2023-03-15T10:43:22.005Z,97942.56
2023-03-15T10:46:01.057Z,97939.88
2023-03-15T10:48:31.253Z,97930.97
2023-03-15T10:51:03.179Z,97931.81
2023-03-15T10:53:31.919Z,97939.88
2023-03-15T10:56:02.412Z,97942.56
2023-03-15T10:58:40.555Z,97935.31
2023-03-15T11:01:15.819Z,97953.28
2023-03-15T11:03:45.601Z,97953.28
2023-03-15T11:06:27.333Z,97946.28
2023-03-15T11:08:56.075Z,97941.72
2023-03-15T11:11:24.789Z,97942.56
2023-03-15T11:14:01.571Z,97947.94
2023-03-15T11:16:35.393Z,97950.63
2023-03-15T11:19:04.347Z,97955.97
2023-03-15T11:21:34.696Z,97944.41
2023-03-15T11:24:04.445Z,97951.63
2023-03-15T11:26:35.759Z,97950.63
2023-03-15T11:29:06.491Z,97945.25
2023-03-15T11:31:37.007Z,97942.75
2023-03-15T11:34:09.119Z,97947.09
2023-03-15T11:36:41.241Z,97942.56
2023-03-15T11:39:12.656Z,97942.56
2023-03-15T11:41:44.309Z,97944.41
2023-03-15T11:44:17.053Z,97941.72
2023-03-15T11:46:50.009Z,97951.63
2023-03-15T11:49:24.011Z,97957.00
2023-03-15T11:51:52.744Z,97957.00
2023-03-15T11:54:21.391Z,97960.53
2023-03-15T11:56:55.665Z,97959.69
2023-03-15T11:59:29.318Z,97954.34
2023-03-15T12:02:01.266Z,97954.34
2023-03-15T12:04:44.092Z,97950.81
2023-03-15T12:08:00.632Z,97953.50
2023-03-15T12:10:35.179Z,97953.50
2023-03-15T12:13:19.690Z,97957.00
2023-03-15T12:15:49.706Z,97957.00
2023-03-15T12:18:22.758Z,97960.69
2023-03-15T12:20:54.506Z,97969.63
2023-03-15T12:23:32.580Z,97975.81
2023-03-15T12:26:07.105Z,97972.47
2023-03-15T12:28:37.388Z,97964.25
2023-03-15T12:31:08.046Z,97966.06
2023-03-15T12:33:49.776Z,97971.44
2023-03-15T12:36:27.816Z,97971.44
2023-03-15T12:39:02.612Z,97959.88
2023-03-15T12:41:40.413Z,97967.94
2023-03-15T12:44:35.860Z,97975.16
2023-03-15T12:47:05.327Z,97976.00
2023-03-15T12:49:41.719Z,97978.50
2023-03-15T12:52:41.725Z,97986.28
2023-03-15T12:55:16.376Z,97992.00
2023-03-15T12:57:49.835Z,97987.47
2023-03-15T13:00:20.630Z,97994.88
2023-03-15T13:02:51.893Z,97993.88
2023-03-15T13:05:25.331Z,97998.03
2023-03-15T13:07:59.385Z,98002.03
2023-03-15T13:10:55.306Z,98000.16
2023-03-15T13:14:09.325Z,98002.03
2023-03-15T13:16:43.759Z,97999.78
2023-03-15T13:19:18.986Z,98003.69
2023-03-15T13:22:06.944Z,97995.00
2023-03-15T13:24:42.982Z,98001.34
2023-03-15T13:27:15.687Z,98001.34
2023-03-15T13:29:44.335Z,98001.34
2023-03-15T13:32:15.500Z,98009.41
2023-03-15T13:34:45.756Z,98001.34
2023-03-15T13:37:17.625Z,98010.06
2023-03-15T13:39:58.237Z,98022.84
2023-03-15T13:42:26.942Z,98029.06
2023-03-15T13:45:20.615Z,98042.50
2023-03-15T13:47:49.455Z,98036.28
2023-03-15T13:50:20.212Z,98054.06
2023-03-15T13:52:50.359Z,98037.97
2023-03-15T13:55:22.989Z,98053.25
2023-03-15T13:57:53.197Z,98047.03
2023-03-15T14:00:23.445Z,98052.38
2023-03-15T14:02:54.298Z,98053.25
2023-03-15T14:05:27.513Z,98053.25
2023-03-15T14:08:03.825Z,98059.44
2023-03-15T14:10:33.496Z,98056.78
2023-03-15T14:13:18.400Z,98050.56
2023-03-15T14:15:48.573Z,98064.00
2023-03-15T14:18:20.588Z,98058.44
2023-03-15T14:20:55.191Z,98068.34
2023-03-15T14:23:26.251Z,98055.94
2023-03-15T14:25:55.703Z,98064.81
2023-03-15T14:28:24.898Z,98071.03
2023-03-15T14:30:54.541Z,98063.78
2023-03-15T14:33:30.485Z,98062.13
2023-03-15T14:36:00.391Z,98065.66
2023-03-15T14:38:34.543Z,98060.28
2023-03-15T14:41:20.884Z,98055.75
2023-03-15T14:43:49.645Z,98052.22
2023-03-15T14:46:18.433Z,98047.69
2023-03-15T14:48:47.259Z,98047.69
2023-03-15T14:51:17.414Z,98053.06
2023-03-15T14:53:47.753Z,98061.94
2023-03-15T14:56:18.135Z,98056.56
2023-03-15T14:58:49.526Z,98053.06
2023-03-15T15:01:22.703Z,98045.00
2023-03-15T15:03:54.026Z,98044.16
2023-03-15T15:06:23.117Z,98039.63
2023-03-15T15:08:54.396Z,98053.06
2023-03-15T15:11:23.163Z,98055.75
2023-03-15T15:13:51.722Z,98061.94
2023-03-15T15:16:20.508Z,98065.44
2023-03-15T15:18:49.135Z,98070.66
2023-03-15T15:21:21.286Z,98069.16
2023-03-15T15:23:59.157Z,98070.00
2023-03-15T15:26:30.950Z,98069.16
2023-03-15T15:28:59.836Z,98076.41
2023-03-15T15:31:29.208Z,98082.59
2023-03-15T15:33:58.042Z,98075.56
2023-03-15T15:36:29.486Z,98071.84
2023-03-15T15:39:01.435Z,98081.75
2023-03-15T15:41:31.983Z,98084.47
2023-03-15T15:44:00.830Z,98071.03
2023-03-15T15:46:29.590Z,98076.41
2023-03-15T15:48:58.979Z,98077.22
2023-03-15T15:51:29.886Z,98070.19
2023-03-15T15:53:59.805Z,98080.94
2023-03-15T15:56:33.847Z,98074.00
2023-03-15T15:59:04.470Z,98085.94
2023-03-15T16:01:33.363Z,98078.06
2023-03-15T16:04:02.377Z,98077.22
2023-03-15T16:06:31.113Z,98082.97
2023-03-15T16:08:59.812Z,98080.94
2023-03-15T16:11:30.319Z,98081.75
2023-03-15T16:13:59.130Z,98075.56
2023-03-15T16:16:28.487Z,98085.25
2023-03-15T16:18:57.321Z,98085.66
2023-03-15T16:21:33.580Z,98102.59
2023-03-15T16:24:05.489Z,98089.00
2023-03-15T16:26:36.150Z,98093.34
2023-03-15T16:29:11.090Z,98094.38
2023-03-15T16:31:39.817Z,98087.13
2023-03-15T16:34:11.811Z,98094.38
2023-03-15T16:36:43.836Z,98096.03
2023-03-15T16:39:12.929Z,98103.06
2023-03-15T16:41:43.104Z,98101.41
2023-03-15T16:44:13.600Z,98106.78
2023-03-15T16:46:42.237Z,98103.25
2023-03-15T16:49:10.990Z,98118.34
2023-03-15T16:51:40.266Z,98116.69
2023-03-15T16:54:21.735Z,98111.31
2023-03-15T16:56:54.542Z,98113.81
2023-03-15T16:59:23.217Z,98126.22
2023-03-15T17:01:51.830Z,98116.50
2023-03-15T17:04:22.280Z,98127.06
2023-03-15T17:09:25.424Z,98139.66
2023-03-15T17:11:56.001Z,98137.44
2023-03-15T17:14:31.114Z,98148.38
2023-03-15T17:17:00.794Z,98147.72
2023-03-15T17:19:29.386Z,98145.03
2023-03-15T17:21:57.998Z,98146.03
2023-03-15T17:24:26.602Z,98158.09
2023-03-15T17:26:56.620Z,98150.06
2023-03-15T17:29:25.266Z,98153.75
2023-03-15T17:31:53.884Z,98153.75
2023-03-15T17:34:22.768Z,98162.81
2023-03-15T17:36:51.366Z,98168.84
2023-03-15T17:39:20.036Z,98166.00
2023-03-15T17:41:49.177Z,98170.34
2023-03-15T17:44:19.176Z,98175.72
2023-03-15T17:46:48.151Z,98175.56
2023-03-15T17:49:17.717Z,98179.22
2023-03-15T17:51:46.558Z,98175.56
2023-03-15T17:54:17.008Z,98180.44
2023-03-15T17:56:45.686Z,98188.13
2023-03-15T17:59:14.520Z,98188.97
2023-03-15T18:01:46.424Z,98192.50
2023-03-15T18:04:15.058Z,98196.69
2023-03-15T18:06:43.748Z,98195.19
2023-03-15T18:09:12.839Z,98191.47
2023-03-15T18:11:42.568Z,98197.69
2023-03-15T18:14:14.205Z,98206.75
2023-03-15T18:16:45.343Z,98194.16
2023-03-15T18:19:14.156Z,98189.81
2023-03-15T18:21:42.791Z,98197.69
2023-03-15T18:24:13.816Z,98194.00
2023-03-15T18:26:42.573Z,98189.63
2023-03-15T18:29:12.740Z,98193.34
2023-03-15T18:31:43.380Z,98195.34
2023-03-15T18:34:15.848Z,98201.75
2023-03-15T18:36:44.448Z,98204.25
2023-03-15T18:39:13.277Z,98201.75
2023-03-15T18:41:42.011Z,98204.44
2023-03-15T18:44:11.269Z,98206.09
2023-03-15T18:46:40.225Z,98207.44
2023-03-15T18:49:10.285Z,98207.44
2023-03-15T18:51:39.154Z,98209.91
2023-03-15T18:54:07.865Z,98207.44
2023-03-15T18:56:36.538Z,98214.81
2023-03-15T18:59:05.139Z,98212.13
2023-03-15T19:01:34.469Z,98217.50
2023-03-15T19:04:03.739Z,98213.63
2023-03-15T19:06:34.012Z,98207.59
2023-03-15T19:09:02.772Z,98221.22
2023-03-15T19:11:32.295Z,98213.16
2023-03-15T19:14:00.944Z,98218.53
2023-03-15T19:16:31.642Z,98223.91
2023-03-15T19:19:00.525Z,98225.56
2023-03-15T19:21:29.916Z,98224.75
2023-03-15T19:23:59.900Z,98224.06
2023-03-15T19:26:28.544Z,98231.31
2023-03-15T19:28:57.473Z,98233.16
2023-03-15T19:31:26.389Z,98233.16
2023-03-15T19:33:55.149Z,98236.69
2023-03-15T19:36:24.644Z,98246.59
2023-03-15T19:38:53.384Z,98243.03
2023-03-15T19:41:23.365Z,98247.59
2023-03-15T19:43:52.054Z,98256.47
2023-03-15T19:46:20.721Z,98261.69
2023-03-15T19:48:49.335Z,98259.16
2023-03-15T19:51:18.158Z,98263.69
2023-03-15T19:53:47.918Z,98271.75
2023-03-15T19:56:16.667Z,98276.31
2023-03-15T19:58:46.730Z,98281.69
2023-03-15T20:01:16.073Z,98273.63
2023-03-15T20:03:44.907Z,98279.00
2023-03-15T20:06:14.236Z,98274.66
2023-03-15T20:08:43.076Z,98279.16
2023-03-15T20:11:14.965Z,98289.75
2023-03-15T20:13:44.041Z,98280.00
2023-03-15T20:16:14.371Z,98286.38
2023-03-15T20:18:43.007Z,98277.31
2023-03-15T20:21:11.785Z,98276.47
2023-03-15T20:23:40.415Z,98276.47
2023-03-15T20:26:10.944Z,98291.59
2023-03-15T20:28:39.887Z,98288.06
2023-03-15T20:31:09.997Z,98292.59
2023-03-15T20:33:40.280Z,98297.13
2023-03-15T20:36:09.664Z,98297.97
2023-03-15T20:38:38.310Z,98299.81
2023-03-15T20:41:07.546Z,98307.88
2023-03-15T20:43:36.422Z,98299.81
2023-03-15T20:46:05.311Z,98305.19
2023-03-15T20:48:36.078Z,98310.56
2023-03-15T20:51:06.725Z,98314.06
2023-03-15T20:53:36.461Z,98310.41
2023-03-15T20:56:05.475Z,98315.56
2023-03-15T20:58:34.237Z,98316.59
2023-03-15T21:01:05.072Z,98316.44
2023-03-15T21:03:35.383Z,98324.66
2023-03-15T21:06:06.777Z,98328.00
2023-03-15T21:08:35.485Z,98326.50
2023-03-15T21:11:04.324Z,98327.50
2023-03-15T21:13:33.185Z,98324.81
2023-03-15T21:16:04.137Z,98324.00
2023-03-15T21:18:33.590Z,98333.91
2023-03-15T21:21:03.377Z,98336.59
2023-03-15T21:23:33.373Z,98337.41
2023-03-15T21:26:03.568Z,98337.63
2023-03-15T21:28:32.647Z,98344.66
2023-03-15T21:31:01.248Z,98343.00
2023-03-15T21:33:31.055Z,98349.19
2023-03-15T21:36:00.144Z,98351.88
2023-03-15T21:38:29.154Z,98349.19
2023-03-15T21:40:59.800Z,98354.56
2023-03-15T21:43:28.823Z,98359.75
2023-03-15T21:46:00.321Z,98360.59
2023-03-15T21:48:29.182Z,98363.28
2023-03-15T21:50:57.864Z,98359.59
2023-03-15T21:53:26.657Z,98364.13
2023-03-15T21:55:58.947Z,98357.91
2023-03-15T21:58:28.020Z,98361.59
2023-03-15T22:01:00.531Z,98369.66
2023-03-15T22:03:29.601Z,98366.13
2023-03-15T22:05:58.302Z,98381.44
2023-03-15T22:08:27.256Z,98382.25
2023-03-15T22:10:56.094Z,98382.25
2023-03-15T22:13:26.703Z,98375.22
2023-03-15T22:15:55.711Z,98384.94
2023-03-15T22:18:24.570Z,98386.81
2023-03-15T22:20:53.184Z,98389.47
2023-03-15T22:23:21.842Z,98384.28
2023-03-15T22:25:50.628Z,98389.47
2023-03-15T22:28:19.506Z,98391.34
2023-03-15T22:30:50.013Z,98397.53
2023-03-15T22:33:19.292Z,98394.03
2023-03-15T22:35:48.119Z,98395.84
2023-03-15T22:38:16.768Z,98400.38
2023-03-15T22:40:45.390Z,98407.47
2023-03-15T22:43:14.219Z,98409.28
2023-03-15T22:45:42.802Z,98411.97
2023-03-15T22:48:13.101Z,98409.28
2023-03-15T22:50:41.802Z,98411.97
2023-03-15T22:53:10.418Z,98416.50
2023-03-15T22:55:39.265Z,98409.47
2023-03-15T22:58:07.831Z,98413.00
2023-03-15T23:00:36.371Z,98415.69
2023-03-15T23:03:05.180Z,98417.34
2023-03-15T23:05:35.164Z,98420.22
2023-03-15T23:08:03.983Z,98421.06
2023-03-15T23:10:32.597Z,98427.25
2023-03-15T23:13:02.354Z,98427.25
2023-03-15T23:15:31.176Z,98427.25
2023-03-15T23:17:59.937Z,98430.97
2023-03-15T23:20:29.043Z,98431.78
2023-03-15T23:22:59.432Z,98434.47
2023-03-15T23:25:28.958Z,98440.03
2023-03-15T23:27:57.829Z,98442.53
2023-03-15T23:30:26.726Z,98447.91
2023-03-15T23:32:58.917Z,98446.25
2023-03-15T23:35:27.895Z,98441.72
2023-03-15T23:37:58.278Z,98446.25
2023-03-15T23:40:27.234Z,98443.56
2023-03-15T23:42:59.205Z,98452.44
2023-03-15T23:45:29.594Z,98459.69
2023-03-15T23:47:58.456Z,98462.38
2023-03-15T23:50:27.564Z,98459.69
2023-03-15T23:52:57.947Z,98464.03
2023-03-15T23:55:26.697Z,98467.75
2023-03-15T23:57:55.345Z,98467.75
